createdAt,value
2018-06-13T00:00:39.835Z,6.23
2018-06-13T00:03:08.998Z,7.90
2018-06-13T00:05:38.166Z,8.23
2018-06-13T00:08:07.257Z,7.50
2018-06-13T00:10:36.440Z,11.13
2018-06-13T00:13:05.495Z,9.50
2018-06-13T00:15:34.694Z,9.05
2018-06-13T00:18:03.874Z,13.03
2018-06-13T00:20:32.973Z,12.47
2018-06-13T00:23:02.196Z,14.50
2018-06-13T00:25:31.342Z,9.48
2018-06-13T00:28:00.518Z,13.63
2018-06-13T00:30:30.510Z,13.45
2018-06-13T00:33:00.411Z,12.73
2018-06-13T00:35:30.391Z,11.18
2018-06-13T00:38:00.551Z,12.13
2018-06-13T00:40:30.427Z,11.38
2018-06-13T00:43:00.567Z,14.05
2018-06-13T00:45:30.561Z,7.30
2018-06-13T00:48:00.674Z,4.42
2018-06-13T00:50:30.697Z,5.95
2018-06-13T00:53:00.786Z,6.53
2018-06-13T00:55:30.650Z,9.43
2018-06-13T00:58:00.727Z,7.90
2018-06-13T01:00:30.803Z,7.47
2018-06-13T01:03:00.786Z,3.45
2018-06-13T01:05:30.789Z,6.55
2018-06-13T01:08:00.851Z,5.12
2018-06-13T01:10:30.891Z,7.08
2018-06-13T01:13:01.080Z,8.50
2018-06-13T01:15:30.990Z,9.50
2018-06-13T01:18:01.005Z,8.53
2018-06-13T01:20:31.001Z,9.03
2018-06-13T01:23:01.031Z,9.23
2018-06-13T01:25:31.021Z,9.35
2018-06-13T01:28:01.118Z,18.75
2018-06-13T01:30:31.209Z,12.13
2018-06-13T01:33:01.101Z,10.75
2018-06-13T01:35:31.194Z,10.48
2018-06-13T01:38:01.185Z,10.38
2018-06-13T01:40:31.343Z,11.70
2018-06-13T01:43:01.278Z,11.38
2018-06-13T01:45:31.250Z,9.90
2018-06-13T01:48:01.262Z,9.93
2018-06-13T01:50:31.293Z,9.65
2018-06-13T01:53:01.499Z,11.60
2018-06-13T01:55:31.493Z,14.33
2018-06-13T01:58:01.429Z,8.43
2018-06-13T02:00:31.497Z,10.25
2018-06-13T02:03:01.533Z,11.95
2018-06-13T02:05:31.487Z,10.95
2018-06-13T02:08:01.601Z,7.33
2018-06-13T02:10:31.634Z,9.70
2018-06-13T02:13:01.690Z,8.80
2018-06-13T02:15:31.727Z,10.30
2018-06-13T02:18:02.710Z,10.82
2018-06-13T02:20:31.894Z,9.40
2018-06-13T02:23:01.738Z,11.57
2018-06-13T02:25:31.723Z,10.93
2018-06-13T02:28:01.811Z,9.88
2018-06-13T02:30:31.834Z,10.08
2018-06-13T02:33:01.630Z,10.95
2018-06-13T02:35:31.683Z,12.03
2018-06-13T02:38:02.013Z,11.08
2018-06-13T02:40:31.919Z,13.38
2018-06-13T02:43:01.953Z,9.43
2018-06-13T02:45:32.044Z,11.68
2018-06-13T02:48:01.978Z,16.65
2018-06-13T02:50:32.046Z,14.40
2018-06-13T02:53:02.126Z,24.37
2018-06-13T02:55:32.089Z,19.55
2018-06-13T02:58:02.133Z,19.55
2018-06-13T03:00:32.175Z,19.62
2018-06-13T03:03:02.239Z,25.15
2018-06-13T03:05:32.288Z,28.23
2018-06-13T03:08:02.385Z,20.97
2018-06-13T03:10:32.443Z,18.07
2018-06-13T03:13:02.492Z,19.52
2018-06-13T03:15:32.351Z,23.95
2018-06-13T03:18:02.378Z,22.37
2018-06-13T03:20:32.463Z,19.73
2018-06-13T03:23:02.514Z,22.25
2018-06-13T03:25:32.535Z,29.95
2018-06-13T03:28:02.663Z,23.18
2018-06-13T03:30:32.546Z,23.07
2018-06-13T03:33:02.666Z,21.15
2018-06-13T03:35:32.618Z,31.90
2018-06-13T03:38:02.753Z,27.27
2018-06-13T03:40:32.765Z,30.57
2018-06-13T03:43:02.690Z,33.20
2018-06-13T03:45:32.766Z,32.42
2018-06-13T03:48:02.853Z,33.70
2018-06-13T03:50:32.902Z,30.37
2018-06-13T03:53:02.094Z,37.70
2018-06-13T03:55:31.123Z,31.50
2018-06-13T03:58:00.321Z,30.20
2018-06-13T04:00:29.549Z,36.60
2018-06-13T04:02:58.702Z,33.10
2018-06-13T04:05:27.866Z,33.37
2018-06-13T04:07:56.937Z,30.08
2018-06-13T04:10:26.174Z,30.02
2018-06-13T04:12:55.479Z,34.87
2018-06-13T04:15:24.652Z,28.83
2018-06-13T04:17:53.778Z,31.67
2018-06-13T04:20:23.070Z,24.23
2018-06-13T04:22:52.337Z,24.80
2018-06-13T04:25:21.489Z,28.93
2018-06-13T04:27:50.685Z,30.87
2018-06-13T04:30:19.930Z,31.40
2018-06-13T04:32:49.088Z,31.83
2018-06-13T04:35:18.181Z,26.17
2018-06-13T04:37:47.454Z,23.63
2018-06-13T04:40:17.553Z,23.03
2018-06-13T04:42:50.211Z,24.70
2018-06-13T04:48:02.901Z,25.02
2018-06-13T04:50:32.166Z,26.43
2018-06-13T04:53:01.434Z,29.53
2018-06-13T04:55:30.649Z,29.20
2018-06-13T04:57:59.758Z,30.20
2018-06-13T05:00:29.036Z,30.13
2018-06-13T05:02:58.209Z,29.40
2018-06-13T05:05:27.418Z,27.10
2018-06-13T05:07:56.537Z,22.87
2018-06-13T05:10:25.705Z,21.90
2018-06-13T05:12:54.873Z,21.43
2018-06-13T05:15:24.102Z,18.77
2018-06-13T05:17:53.293Z,22.50
2018-06-13T05:20:22.391Z,25.50
2018-06-13T05:22:51.611Z,24.80
2018-06-13T05:25:20.781Z,22.70
2018-06-13T05:27:49.901Z,22.60
2018-06-13T05:30:19.010Z,18.87
2018-06-13T05:32:48.158Z,15.73
2018-06-13T05:35:17.291Z,20.33
2018-06-13T05:37:46.486Z,21.67
2018-06-13T05:40:15.649Z,21.17
2018-06-13T05:42:44.847Z,22.47
2018-06-13T05:45:14.053Z,20.23
2018-06-13T05:47:43.152Z,22.10
2018-06-13T05:50:12.302Z,20.37
2018-06-13T05:52:41.582Z,20.40
2018-06-13T05:55:10.730Z,23.07
2018-06-13T05:57:39.826Z,22.43
2018-06-13T06:00:09.004Z,23.87
2018-06-13T06:02:37.875Z,25.43
2018-06-13T06:05:07.000Z,24.77
2018-06-13T06:07:36.166Z,23.83
2018-06-13T06:10:05.238Z,27.10
2018-06-13T06:12:34.378Z,29.40
2018-06-13T06:15:03.528Z,31.77
2018-06-13T06:17:32.698Z,29.37
2018-06-13T06:20:01.898Z,30.60
2018-06-13T06:22:31.030Z,26.20
2018-06-13T06:25:00.282Z,25.40
2018-06-13T06:27:29.483Z,26.47
2018-06-13T06:29:58.611Z,25.47
2018-06-13T06:32:27.722Z,25.20
2018-06-13T06:34:56.910Z,42.37
2018-06-13T06:37:26.115Z,28.60
2018-06-13T06:39:55.217Z,35.47
2018-06-13T06:42:24.332Z,34.27
2018-06-13T06:44:53.501Z,35.83
2018-06-13T06:47:22.681Z,37.50
2018-06-13T06:49:51.862Z,34.50
2018-06-13T06:52:20.970Z,42.10
2018-06-13T06:54:50.222Z,30.77
2018-06-13T06:57:19.141Z,32.43
2018-06-13T06:59:48.344Z,32.03
2018-06-13T07:02:17.540Z,31.20
2018-06-13T07:04:46.675Z,23.73
2018-06-13T07:07:15.970Z,28.83
2018-06-13T07:09:45.153Z,29.53
2018-06-13T07:12:14.309Z,29.70
2018-06-13T07:14:43.525Z,30.23
2018-06-13T07:17:12.631Z,27.60
2018-06-13T07:19:41.791Z,32.73
2018-06-13T07:22:10.959Z,36.57
2018-06-13T07:24:40.090Z,36.50
2018-06-13T07:27:09.230Z,29.13
2018-06-13T07:29:38.435Z,29.90
2018-06-13T07:32:07.618Z,28.53
2018-06-13T07:34:36.771Z,23.90
2018-06-13T07:37:05.978Z,20.90
2018-06-13T07:39:35.079Z,37.53
2018-06-13T07:42:04.238Z,31.87
2018-06-13T07:44:33.418Z,41.07
2018-06-13T07:47:02.663Z,32.17
2018-06-13T07:49:31.813Z,31.50
2018-06-13T07:52:00.998Z,30.80
2018-06-13T07:54:30.206Z,35.93
2018-06-13T07:56:59.443Z,30.73
2018-06-13T07:59:28.621Z,33.17
2018-06-13T08:01:57.902Z,36.20
2018-06-13T08:04:27.163Z,37.60
2018-06-13T08:06:56.322Z,38.97
2018-06-13T08:09:25.510Z,34.73
2018-06-13T08:11:54.797Z,36.83
2018-06-13T08:14:23.938Z,30.77
2018-06-13T08:16:53.127Z,49.33
2018-06-13T08:19:22.343Z,44.43
2018-06-13T08:21:51.586Z,34.40
2018-06-13T08:24:20.874Z,41.23
2018-06-13T08:26:57.608Z,37.43
2018-06-13T08:29:26.634Z,36.80
2018-06-13T08:31:55.830Z,42.93
2018-06-13T08:34:24.986Z,44.67
2018-06-13T08:36:54.258Z,47.10
2018-06-13T08:39:23.302Z,38.23
2018-06-13T08:41:52.514Z,46.13
2018-06-13T08:44:21.621Z,46.67
2018-06-13T08:46:50.790Z,53.87
2018-06-13T08:49:19.933Z,45.60
2018-06-13T08:51:49.126Z,49.87
2018-06-13T08:54:18.378Z,48.93
2018-06-13T08:56:47.573Z,52.30
2018-06-13T08:59:16.674Z,54.13
2018-06-13T09:01:45.745Z,47.53
2018-06-13T09:04:14.937Z,62.03
2018-06-13T09:06:44.034Z,62.33
2018-06-13T09:09:13.173Z,52.23
2018-06-13T09:11:42.348Z,48.47
2018-06-13T09:14:11.462Z,54.83
2018-06-13T09:16:40.677Z,59.30
2018-06-13T09:19:09.876Z,55.00
2018-06-13T09:21:39.154Z,58.77
2018-06-13T09:24:08.258Z,56.07
2018-06-13T09:26:37.554Z,55.87
2018-06-13T09:29:06.759Z,70.43
2018-06-13T09:31:35.943Z,54.20
2018-06-13T09:34:04.993Z,49.60
2018-06-13T09:36:34.166Z,56.20
2018-06-13T09:39:03.370Z,61.97
2018-06-13T09:41:32.677Z,69.20
2018-06-13T09:44:01.839Z,75.00
2018-06-13T09:46:31.103Z,65.50
2018-06-13T09:49:00.265Z,57.60
2018-06-13T09:51:29.481Z,66.70
2018-06-13T09:53:58.640Z,67.57
2018-06-13T09:56:27.726Z,69.80
2018-06-13T09:59:02.135Z,73.00
2018-06-13T10:01:36.500Z,70.40
2018-06-13T10:04:05.637Z,65.47
2018-06-13T10:06:34.874Z,56.80
2018-06-13T10:09:05.558Z,75.73
2018-06-13T10:11:34.750Z,73.00
2018-06-13T10:14:03.850Z,68.97
2018-06-13T10:16:33.010Z,58.13
2018-06-13T10:19:02.181Z,66.90
2018-06-13T10:21:31.322Z,53.07
2018-06-13T10:24:00.473Z,54.23
2018-06-13T10:26:29.684Z,64.20
2018-06-13T10:28:58.997Z,50.40
2018-06-13T10:31:28.080Z,56.30
2018-06-13T10:33:56.926Z,49.30
2018-06-13T10:36:26.102Z,51.47
2018-06-13T10:38:55.259Z,66.07
2018-06-13T10:41:24.444Z,48.27
2018-06-13T10:43:53.490Z,65.07
2018-06-13T10:46:22.597Z,54.70
2018-06-13T10:48:51.694Z,109.47
2018-06-13T10:51:20.925Z,51.70
2018-06-13T10:53:49.925Z,52.03
2018-06-13T10:56:19.035Z,50.27
2018-06-13T10:58:48.077Z,71.10
2018-06-13T11:01:17.188Z,50.97
2018-06-13T11:03:46.273Z,55.97
2018-06-13T11:06:15.468Z,51.87
2018-06-13T11:08:44.626Z,49.30
2018-06-13T11:11:13.836Z,50.47
2018-06-13T11:13:42.966Z,52.77
2018-06-13T11:16:12.235Z,56.37
2018-06-13T11:18:41.358Z,56.53
2018-06-13T11:21:10.417Z,53.93
2018-06-13T11:23:39.561Z,49.43
2018-06-13T11:26:08.743Z,44.80
2018-06-13T11:28:37.894Z,70.87
2018-06-13T11:31:06.948Z,45.80
2018-06-13T11:33:36.169Z,44.30
2018-06-13T11:36:05.359Z,53.70
2018-06-13T11:38:34.548Z,54.03
2018-06-13T11:41:03.594Z,51.23
2018-06-13T11:43:32.754Z,53.87
2018-06-13T11:46:02.026Z,51.90
2018-06-13T11:48:31.102Z,50.87
2018-06-13T11:51:00.207Z,45.93
2018-06-13T11:53:29.371Z,53.53
2018-06-13T11:55:58.510Z,49.03
2018-06-13T11:58:27.779Z,46.57
2018-06-13T12:00:57.130Z,43.90
2018-06-13T12:03:26.258Z,57.37
2018-06-13T12:05:55.370Z,40.50
2018-06-13T12:08:24.565Z,50.20
2018-06-13T12:10:53.712Z,36.70
2018-06-13T12:13:22.969Z,43.03
2018-06-13T12:15:52.146Z,37.17
2018-06-13T12:18:21.381Z,46.40
2018-06-13T12:20:50.881Z,37.13
2018-06-13T12:23:20.135Z,39.47
2018-06-13T12:25:49.215Z,49.53
2018-06-13T12:28:18.370Z,43.33
2018-06-13T12:30:47.549Z,45.70
2018-06-13T12:33:16.717Z,35.10
2018-06-13T12:35:45.862Z,39.03
2018-06-13T12:38:15.000Z,43.17
2018-06-13T12:40:44.126Z,36.33
2018-06-13T12:43:13.314Z,39.03
2018-06-13T12:45:42.522Z,51.40
2018-06-13T12:48:11.622Z,39.40
2018-06-13T12:50:40.830Z,38.47
2018-06-13T12:53:09.997Z,40.40
2018-06-13T12:55:39.278Z,37.97
2018-06-13T12:58:08.456Z,36.77
2018-06-13T13:00:37.462Z,37.20
2018-06-13T13:03:06.814Z,32.70
2018-06-13T13:05:36.070Z,40.80
2018-06-13T13:08:05.246Z,45.50
2018-06-13T13:10:34.510Z,41.60
2018-06-13T13:13:03.634Z,48.63
2018-06-13T13:15:32.762Z,39.43
2018-06-13T13:18:01.968Z,39.43
2018-06-13T13:20:31.085Z,39.50
2018-06-13T13:23:00.247Z,51.87
2018-06-13T13:25:29.418Z,44.30
2018-06-13T13:27:58.628Z,35.63
2018-06-13T13:30:28.019Z,39.43
2018-06-13T13:32:57.310Z,40.40
2018-06-13T13:35:26.700Z,42.13
2018-06-13T13:37:55.840Z,37.17
2018-06-13T13:40:25.031Z,35.73
2018-06-13T13:42:54.118Z,41.77
2018-06-13T13:45:24.153Z,46.33
2018-06-13T13:47:53.263Z,47.33
2018-06-13T13:50:22.282Z,36.77
2018-06-13T13:52:51.421Z,34.73
2018-06-13T13:55:20.523Z,32.63
2018-06-13T13:57:49.707Z,38.23
2018-06-13T14:00:18.934Z,33.87
2018-06-13T14:02:48.018Z,35.30
2018-06-13T14:05:17.142Z,38.33
2018-06-13T14:07:46.370Z,33.10
2018-06-13T14:10:15.698Z,34.60
2018-06-13T14:12:44.804Z,45.23
2018-06-13T14:15:13.926Z,29.20
2018-06-13T14:17:43.145Z,30.67
2018-06-13T14:20:12.346Z,32.80
2018-06-13T14:22:41.482Z,44.00
2018-06-13T14:25:10.641Z,31.43
2018-06-13T14:27:39.806Z,31.13
2018-06-13T14:30:09.137Z,30.50
2018-06-13T14:32:38.350Z,32.17
2018-06-13T14:35:07.652Z,38.80
2018-06-13T14:37:36.594Z,31.57
2018-06-13T14:40:05.756Z,32.53
2018-06-13T14:42:34.886Z,24.17
2018-06-13T14:45:04.081Z,27.87
2018-06-13T14:47:33.343Z,33.30
2018-06-13T14:50:02.625Z,26.90
2018-06-13T14:52:31.511Z,27.30
2018-06-13T14:55:00.661Z,30.10
2018-06-13T14:57:29.843Z,45.67
2018-06-13T14:59:59.047Z,30.13
2018-06-13T15:02:28.141Z,28.47
2018-06-13T15:04:57.177Z,28.73
2018-06-13T15:07:26.342Z,40.47
2018-06-13T15:09:55.450Z,32.77
2018-06-13T15:12:24.646Z,32.60
2018-06-13T15:14:53.862Z,27.03
2018-06-13T15:17:23.160Z,32.07
2018-06-13T15:19:52.408Z,29.80
2018-06-13T15:22:21.542Z,36.33
2018-06-13T15:24:50.814Z,32.83
2018-06-13T15:27:20.037Z,30.10
2018-06-13T15:29:49.145Z,35.70
2018-06-13T15:32:18.243Z,32.70
2018-06-13T15:34:47.458Z,37.50
2018-06-13T15:37:16.458Z,32.43
2018-06-13T15:39:45.562Z,29.20
2018-06-13T15:42:14.666Z,31.00
2018-06-13T15:44:43.919Z,29.60
2018-06-13T15:47:13.138Z,32.20
2018-06-13T15:49:42.357Z,32.30
2018-06-13T15:52:11.531Z,28.70
2018-06-13T15:54:40.763Z,28.87
2018-06-13T15:57:09.929Z,29.70
2018-06-13T15:59:39.104Z,30.70
2018-06-13T16:02:08.231Z,35.27
2018-06-13T16:04:37.485Z,33.43
2018-06-13T16:07:06.533Z,42.23
2018-06-13T16:09:35.726Z,39.53
2018-06-13T16:12:04.813Z,32.40
2018-06-13T16:14:33.992Z,33.90
2018-06-13T16:17:03.170Z,33.07
2018-06-13T16:19:32.469Z,33.20
2018-06-13T16:22:01.574Z,27.80
2018-06-13T16:24:30.718Z,41.93
2018-06-13T16:26:59.885Z,36.43
2018-06-13T16:29:29.050Z,29.93
2018-06-13T16:31:58.229Z,78.20
2018-06-13T16:34:27.487Z,30.83
2018-06-13T16:36:56.754Z,26.10
2018-06-13T16:39:25.965Z,30.97
2018-06-13T16:41:54.946Z,24.50
2018-06-13T16:44:24.197Z,28.93
2018-06-13T16:46:53.377Z,29.03
2018-06-13T16:49:22.468Z,24.73
2018-06-13T16:51:55.767Z,23.13
2018-06-13T16:54:41.822Z,32.80
2018-06-13T16:57:10.828Z,29.60
2018-06-13T16:59:39.940Z,26.53
2018-06-13T17:02:15.031Z,27.50
2018-06-13T17:04:44.362Z,28.40
2018-06-13T17:07:13.635Z,23.53
2018-06-13T17:09:42.863Z,29.20
2018-06-13T17:12:12.029Z,28.70
2018-06-13T17:14:41.205Z,27.80
2018-06-13T17:17:10.262Z,28.10
2018-06-13T17:19:39.528Z,25.37
2018-06-13T17:22:08.755Z,25.23
2018-06-13T17:24:37.975Z,24.40
2018-06-13T17:27:07.078Z,29.57
2018-06-13T17:29:36.338Z,24.60
2018-06-13T17:32:05.185Z,28.97
2018-06-13T17:34:34.525Z,25.90
2018-06-13T17:37:03.674Z,29.70
2018-06-13T17:39:32.794Z,23.30
2018-06-13T17:42:02.067Z,23.23
2018-06-13T17:44:31.140Z,21.97
2018-06-13T17:47:00.329Z,24.70
2018-06-13T17:49:29.405Z,26.77
2018-06-13T17:51:58.614Z,27.80
2018-06-13T17:54:27.754Z,26.17
2018-06-13T17:56:57.022Z,32.20
2018-06-13T17:59:26.365Z,30.60
2018-06-13T18:01:56.007Z,33.07
2018-06-13T18:04:26.298Z,25.53
2018-06-13T18:06:55.579Z,26.20
2018-06-13T18:09:24.831Z,23.90
2018-06-13T18:11:54.010Z,30.33
2018-06-13T18:14:30.714Z,25.13
2018-06-13T18:16:59.962Z,20.47
2018-06-13T18:19:29.130Z,26.70
2018-06-13T18:21:58.326Z,27.73
2018-06-13T18:24:27.546Z,22.60
2018-06-13T18:26:56.669Z,20.03
2018-06-13T18:29:25.906Z,23.03
2018-06-13T18:31:55.002Z,23.40
2018-06-13T18:34:24.286Z,19.50
2018-06-13T18:36:53.395Z,19.60
2018-06-13T18:39:22.475Z,26.60
2018-06-13T18:41:52.597Z,22.70
2018-06-13T18:44:21.794Z,18.77
2018-06-13T18:46:50.868Z,24.93
2018-06-13T18:49:20.016Z,22.87
2018-06-13T18:51:49.225Z,19.87
2018-06-13T18:54:18.322Z,21.93
2018-06-13T18:56:47.530Z,21.20
2018-06-13T18:59:16.755Z,18.77
2018-06-13T19:01:46.926Z,18.40
2018-06-13T19:04:16.103Z,18.33
2018-06-13T19:06:45.144Z,14.27
2018-06-13T19:09:14.458Z,16.70
2018-06-13T19:11:43.549Z,16.27
2018-06-13T19:14:12.777Z,20.70
2018-06-13T19:16:42.044Z,16.10
2018-06-13T19:19:11.463Z,15.97
2018-06-13T19:21:40.557Z,16.40
2018-06-13T19:24:09.785Z,15.00
2018-06-13T19:26:38.930Z,21.57
2018-06-13T19:29:08.191Z,21.43
2018-06-13T19:31:37.357Z,13.10
2018-06-13T19:34:06.573Z,23.63
2018-06-13T19:36:35.734Z,15.07
2018-06-13T19:39:07.049Z,13.83
2018-06-13T19:41:36.369Z,13.20
2018-06-13T19:44:05.286Z,13.97
2018-06-13T19:46:34.449Z,13.00
2018-06-13T19:49:03.526Z,15.00
2018-06-13T19:51:32.671Z,22.43
2018-06-13T19:54:07.525Z,12.77
2018-06-13T19:56:36.668Z,13.90
2018-06-13T19:59:05.878Z,16.63
2018-06-13T20:01:35.175Z,14.63
2018-06-13T20:04:09.551Z,14.10
2018-06-13T20:06:39.990Z,17.90
2018-06-13T20:09:11.222Z,14.20
2018-06-13T20:11:40.570Z,32.20
2018-06-13T20:14:15.094Z,21.37
2018-06-13T20:16:50.884Z,23.90
2018-06-13T20:19:31.613Z,18.47
2018-06-13T20:22:00.504Z,16.37
2018-06-13T20:24:35.598Z,16.93
2018-06-13T20:27:09.850Z,16.53
2018-06-13T20:29:44.003Z,19.00
2018-06-13T20:32:13.198Z,23.07
2018-06-13T20:34:42.338Z,13.97
2018-06-13T20:37:11.538Z,22.67
2018-06-13T20:39:40.694Z,18.63
2018-06-13T20:42:09.867Z,18.50
2018-06-13T20:44:39.039Z,16.83
2018-06-13T20:47:07.912Z,17.37
2018-06-13T20:49:36.785Z,18.57
2018-06-13T20:52:06.172Z,16.60
2018-06-13T20:54:35.370Z,15.13
2018-06-13T20:57:04.483Z,18.03
2018-06-13T20:59:34.528Z,18.53
2018-06-13T21:02:03.734Z,23.00
2018-06-13T21:04:32.897Z,19.43
2018-06-13T21:07:01.993Z,22.13
2018-06-13T21:09:31.278Z,15.10
2018-06-13T21:12:00.418Z,19.43
2018-06-13T21:14:29.586Z,18.90
2018-06-13T21:16:58.766Z,15.47
2018-06-13T21:19:27.968Z,16.80
2018-06-13T21:21:57.021Z,18.07
2018-06-13T21:24:26.222Z,14.17
2018-06-13T21:26:55.425Z,18.83
2018-06-13T21:29:24.604Z,18.77
2018-06-13T21:31:53.850Z,12.67
2018-06-13T21:34:23.150Z,24.47
2018-06-13T21:36:52.314Z,15.20
2018-06-13T21:39:21.426Z,18.60
2018-06-13T21:41:50.522Z,17.00
2018-06-13T21:44:19.613Z,16.83
2018-06-13T21:46:48.817Z,15.50
2018-06-13T21:49:17.982Z,14.20
2018-06-13T21:51:47.221Z,16.90
2018-06-13T21:54:16.358Z,17.93
2018-06-13T21:56:45.200Z,19.60
2018-06-13T21:59:14.347Z,15.80
2018-06-13T22:01:43.506Z,14.20
2018-06-13T22:04:12.732Z,12.27
2018-06-13T22:24:40.306Z,13.07
2018-06-13T22:27:13.450Z,12.07
2018-06-13T22:29:42.581Z,12.83
2018-06-13T22:32:11.762Z,15.20
2018-06-13T22:34:40.970Z,20.83
2018-06-13T22:37:10.177Z,11.60
2018-06-13T22:39:39.358Z,14.13
2018-06-13T22:42:08.593Z,12.70
2018-06-13T22:44:37.754Z,17.27
2018-06-13T22:47:06.979Z,16.57
2018-06-13T22:49:36.185Z,12.17
2018-06-13T22:52:05.385Z,10.05
2018-06-13T22:54:34.554Z,13.17
2018-06-13T22:57:03.686Z,13.60
2018-06-13T22:59:32.762Z,12.63
2018-06-13T23:02:01.947Z,14.00
2018-06-13T23:04:31.182Z,16.60
2018-06-13T23:07:00.226Z,14.20
2018-06-13T23:09:29.434Z,17.47
2018-06-13T23:11:58.731Z,11.83
2018-06-13T23:14:27.922Z,14.77
2018-06-13T23:16:57.138Z,13.87
2018-06-13T23:19:26.278Z,18.73
2018-06-13T23:21:55.490Z,13.33
2018-06-13T23:24:24.655Z,13.23
2018-06-13T23:26:54.045Z,18.12
2018-06-13T23:29:23.178Z,18.80
2018-06-13T23:31:52.260Z,13.70
2018-06-13T23:34:22.229Z,17.07
2018-06-13T23:36:51.517Z,14.60
2018-06-13T23:39:20.751Z,15.98
2018-06-13T23:41:49.873Z,18.33
2018-06-13T23:44:19.070Z,11.15
2018-06-13T23:46:48.339Z,14.37
2018-06-13T23:49:17.420Z,13.00
2018-06-13T23:51:46.613Z,10.70
2018-06-13T23:54:16.183Z,13.50
2018-06-13T23:56:46.199Z,19.45
2018-06-13T23:59:16.194Z,15.38
